sensor_id;sensor_type;location;lat;lon;timestamp;pressure;altitude;pressure_sealevel;temperature
65600;BMP280;52272;-29.642;-50.764;2022-08-01T00:01:00;101063.38;;;20.11
65600;BMP280;52272;-29.642;-50.764;2022-08-01T00:03:31;101054.06;;;20.28
65600;BMP280;52272;-29.642;-50.764;2022-08-01T00:06:01;101063.19;;;20.75
65600;BMP280;52272;-29.642;-50.764;2022-08-01T00:08:31;101053.91;;;19.85
65600;BMP280;52272;-29.642;-50.764;2022-08-01T00:11:01;101058.69;;;19.48
65600;BMP280;52272;-29.642;-50.764;2022-08-01T00:13:32;101077.44;;;20.42
65600;BMP280;52272;-29.642;-50.764;2022-08-01T00:16:02;101066.63;;;20.64
65600;BMP280;52272;-29.642;-50.764;2022-08-01T00:18:33;101055.06;;;20.80
65600;BMP280;52272;-29.642;-50.764;2022-08-01T00:21:05;101060.25;;;20.78
65600;BMP280;52272;-29.642;-50.764;2022-08-01T00:23:35;101059.75;;;21.02
65600;BMP280;52272;-29.642;-50.764;2022-08-01T00:26:05;101062.91;;;21.17
65600;BMP280;52272;-29.642;-50.764;2022-08-01T00:28:36;101060.66;;;21.26
65600;BMP280;52272;-29.642;-50.764;2022-08-01T00:31:06;101064.84;;;21.27
65600;BMP280;52272;-29.642;-50.764;2022-08-01T00:33:37;101070.53;;;21.29
65600;BMP280;52272;-29.642;-50.764;2022-08-01T00:36:10;101067.75;;;21.35
65600;BMP280;52272;-29.642;-50.764;2022-08-01T00:38:41;101062.28;;;21.56
65600;BMP280;52272;-29.642;-50.764;2022-08-01T00:41:11;101047.78;;;21.43
65600;BMP280;52272;-29.642;-50.764;2022-08-01T00:43:42;101056.97;;;21.29
65600;BMP280;52272;-29.642;-50.764;2022-08-01T00:46:12;101062.59;;;21.31
65600;BMP280;52272;-29.642;-50.764;2022-08-01T00:48:42;101057.69;;;21.19
65600;BMP280;52272;-29.642;-50.764;2022-08-01T00:51:13;101066.88;;;20.28
65600;BMP280;52272;-29.642;-50.764;2022-08-01T00:53:49;101077.97;;;20.68
65600;BMP280;52272;-29.642;-50.764;2022-08-01T00:56:24;101059.78;;;20.74
65600;BMP280;52272;-29.642;-50.764;2022-08-01T00:58:55;101063.16;;;20.47
65600;BMP280;52272;-29.642;-50.764;2022-08-01T01:01:26;101061.72;;;20.57
65600;BMP280;52272;-29.642;-50.764;2022-08-01T01:04:07;101063.69;;;20.29
65600;BMP280;52272;-29.642;-50.764;2022-08-01T01:07:09;101055.59;;;20.46
65600;BMP280;52272;-29.642;-50.764;2022-08-01T01:15:46;101057.75;;;20.42
65600;BMP280;52272;-29.642;-50.764;2022-08-01T01:18:25;101065.16;;;20.41
65600;BMP280;52272;-29.642;-50.764;2022-08-01T01:32:44;101059.00;;;20.41
65600;BMP280;52272;-29.642;-50.764;2022-08-01T01:35:24;101071.03;;;20.34
65600;BMP280;52272;-29.642;-50.764;2022-08-01T01:38:01;101083.06;;;20.22
65600;BMP280;52272;-29.642;-50.764;2022-08-01T01:40:34;101077.44;;;20.42
65600;BMP280;52272;-29.642;-50.764;2022-08-01T01:43:09;101081.84;;;20.34
65600;BMP280;52272;-29.642;-50.764;2022-08-01T01:45:42;101076.22;;;20.49
65600;BMP280;52272;-29.642;-50.764;2022-08-01T01:48:16;101075.00;;;20.44
65600;BMP280;52272;-29.642;-50.764;2022-08-01T01:50:48;101072.78;;;20.37
65600;BMP280;52272;-29.642;-50.764;2022-08-01T01:53:22;101070.31;;;20.39
65600;BMP280;52272;-29.642;-50.764;2022-08-01T01:55:55;101063.16;;;20.25
65600;BMP280;52272;-29.642;-50.764;2022-08-01T01:58:27;101066.09;;;20.27
65600;BMP280;52272;-29.642;-50.764;2022-08-01T02:01:00;101072.50;;;20.35
65600;BMP280;52272;-29.642;-50.764;2022-08-01T02:03:31;101064.63;;;20.26
65600;BMP280;52272;-29.642;-50.764;2022-08-01T02:06:02;101058.94;;;20.19
65600;BMP280;52272;-29.642;-50.764;2022-08-01T02:08:35;101067.09;;;20.30
65600;BMP280;52272;-29.642;-50.764;2022-08-01T02:11:07;101062.13;;;20.17
65600;BMP280;52272;-29.642;-50.764;2022-08-01T02:13:58;101065.84;;;20.25
65600;BMP280;52272;-29.642;-50.764;2022-08-01T02:16:36;101077.66;;;20.17
65600;BMP280;52272;-29.642;-50.764;2022-08-01T02:19:08;101080.06;;;20.04
65600;BMP280;52272;-29.642;-50.764;2022-08-01T02:21:44;101089.00;;;19.63
65600;BMP280;52272;-29.642;-50.764;2022-08-01T02:24:50;101086.66;;;19.87
65600;BMP280;52272;-29.642;-50.764;2022-08-01T02:28:13;101086.66;;;19.87
65600;BMP280;52272;-29.642;-50.764;2022-08-01T02:30:47;101073.38;;;19.83
65600;BMP280;52272;-29.642;-50.764;2022-08-01T02:33:21;101065.47;;;19.80
65600;BMP280;52272;-29.642;-50.764;2022-08-01T02:36:00;101066.19;;;19.69
65600;BMP280;52272;-29.642;-50.764;2022-08-01T02:38:52;101073.81;;;19.71
65600;BMP280;52272;-29.642;-50.764;2022-08-01T02:41:26;101070.06;;;19.63
65600;BMP280;52272;-29.642;-50.764;2022-08-01T02:44:02;101072.97;;;19.54
65600;BMP280;52272;-29.642;-50.764;2022-08-01T02:46:51;101081.34;;;19.56
65600;BMP280;52272;-29.642;-50.764;2022-08-01T02:49:23;101075.72;;;19.65
65600;BMP280;52272;-29.642;-50.764;2022-08-01T02:51:55;101084.03;;;19.56
65600;BMP280;52272;-29.642;-50.764;2022-08-01T02:54:26;101079.66;;;19.64
65600;BMP280;52272;-29.642;-50.764;2022-08-01T02:57:00;101091.78;;;19.79
65600;BMP280;52272;-29.642;-50.764;2022-08-01T02:59:35;101086.31;;;19.74
65600;BMP280;52272;-29.642;-50.764;2022-08-01T03:02:10;101099.09;;;19.68
65600;BMP280;52272;-29.642;-50.764;2022-08-01T03:04:41;101102.75;;;19.65
65600;BMP280;52272;-29.642;-50.764;2022-08-01T03:07:13;101096.13;;;19.66
65600;BMP280;52272;-29.642;-50.764;2022-08-01T03:09:47;101097.56;;;19.56
65600;BMP280;52272;-29.642;-50.764;2022-08-01T03:12:24;101099.53;;;19.61
65600;BMP280;52272;-29.642;-50.764;2022-08-01T03:14:56;101095.00;;;19.41
65600;BMP280;52272;-29.642;-50.764;2022-08-01T03:17:29;101095.94;;;19.38
65600;BMP280;52272;-29.642;-50.764;2022-08-01T03:20:02;101084.88;;;19.31
65600;BMP280;52272;-29.642;-50.764;2022-08-01T03:22:34;101106.34;;;19.45
65600;BMP280;52272;-29.642;-50.764;2022-08-01T03:25:05;101102.69;;;19.54
65600;BMP280;52272;-29.642;-50.764;2022-08-01T03:27:36;101098.28;;;19.56
65600;BMP280;52272;-29.642;-50.764;2022-08-01T03:30:07;101101.59;;;19.35
65600;BMP280;52272;-29.642;-50.764;2022-08-01T03:32:38;101100.41;;;19.05
65600;BMP280;52272;-29.642;-50.764;2022-08-01T03:35:09;101104.59;;;18.80
65600;BMP280;52272;-29.642;-50.764;2022-08-01T03:37:45;101108.50;;;18.74
65600;BMP280;52272;-29.642;-50.764;2022-08-01T03:40:48;101104.66;;;18.86
65600;BMP280;52272;-29.642;-50.764;2022-08-01T03:43:26;101096.91;;;18.99
65600;BMP280;52272;-29.642;-50.764;2022-08-01T03:46:06;101097.78;;;18.59
65600;BMP280;52272;-29.642;-50.764;2022-08-01T03:48:40;101091.44;;;18.37
65600;BMP280;52272;-29.642;-50.764;2022-08-01T03:51:14;101086.09;;;18.68
65600;BMP280;52272;-29.642;-50.764;2022-08-01T03:53:45;101088.38;;;18.75
65600;BMP280;52272;-29.642;-50.764;2022-08-01T03:56:21;101091.16;;;18.86
65600;BMP280;52272;-29.642;-50.764;2022-08-01T03:58:53;101080.47;;;18.97
65600;BMP280;52272;-29.642;-50.764;2022-08-01T04:01:24;101084.63;;;18.98
65600;BMP280;52272;-29.642;-50.764;2022-08-01T04:03:54;101081.72;;;19.07
65600;BMP280;52272;-29.642;-50.764;2022-08-01T04:06:24;101056.69;;;19.01
65600;BMP280;52272;-29.642;-50.764;2022-08-01T04:08:54;101055.28;;;19.16
65600;BMP280;52272;-29.642;-50.764;2022-08-01T04:11:25;101069.19;;;19.35
65600;BMP280;52272;-29.642;-50.764;2022-08-01T04:13:56;101075.91;;;19.50
65600;BMP280;52272;-29.642;-50.764;2022-08-01T04:16:27;101078.72;;;19.67
65600;BMP280;52272;-29.642;-50.764;2022-08-01T04:18:57;101075.81;;;19.81
65600;BMP280;52272;-29.642;-50.764;2022-08-01T04:21:31;101070.88;;;19.80
65600;BMP280;52272;-29.642;-50.764;2022-08-01T04:24:07;101067.16;;;19.66
65600;BMP280;52272;-29.642;-50.764;2022-08-01T04:26:41;101057.59;;;19.71
65600;BMP280;52272;-29.642;-50.764;2022-08-01T04:29:14;101062.56;;;19.89
65600;BMP280;52272;-29.642;-50.764;2022-08-01T04:31:48;101051.47;;;19.81
65600;BMP280;52272;-29.642;-50.764;2022-08-01T04:34:21;101064.50;;;19.83
65600;BMP280;52272;-29.642;-50.764;2022-08-01T04:36:54;101059.03;;;19.72
65600;BMP280;52272;-29.642;-50.764;2022-08-01T04:39:27;101054.66;;;19.27
65600;BMP280;52272;-29.642;-50.764;2022-08-01T04:41:59;101046.44;;;18.79
65600;BMP280;52272;-29.642;-50.764;2022-08-01T04:44:33;101044.44;;;18.24
65600;BMP280;52272;-29.642;-50.764;2022-08-01T04:47:04;101037.38;;;18.06
65600;BMP280;52272;-29.642;-50.764;2022-08-01T04:49:37;101030.63;;;17.56
65600;BMP280;52272;-29.642;-50.764;2022-08-01T04:52:17;101016.56;;;17.32
65600;BMP280;52272;-29.642;-50.764;2022-08-01T04:54:52;101013.81;;;17.27
65600;BMP280;52272;-29.642;-50.764;2022-08-01T04:57:22;101006.91;;;17.40
65600;BMP280;52272;-29.642;-50.764;2022-08-01T04:59:52;101007.03;;;17.31
65600;BMP280;52272;-29.642;-50.764;2022-08-01T05:02:26;101009.69;;;17.46
65600;BMP280;52272;-29.642;-50.764;2022-08-01T05:04:58;101004.56;;;17.68
65600;BMP280;52272;-29.642;-50.764;2022-08-01T05:07:29;101014.47;;;17.76
65600;BMP280;52272;-29.642;-50.764;2022-08-01T05:10:11;101009.94;;;18.08
65600;BMP280;52272;-29.642;-50.764;2022-08-01T05:12:42;101006.59;;;18.38
65600;BMP280;52272;-29.642;-50.764;2022-08-01T05:15:12;101000.91;;;18.36
65600;BMP280;52272;-29.642;-50.764;2022-08-01T05:17:43;101007.31;;;18.39
65600;BMP280;52272;-29.642;-50.764;2022-08-01T05:20:13;101013.50;;;18.45
65600;BMP280;52272;-29.642;-50.764;2022-08-01T05:22:44;101002.34;;;18.32
65600;BMP280;52272;-29.642;-50.764;2022-08-01T05:25:14;101009.06;;;18.16
65600;BMP280;52272;-29.642;-50.764;2022-08-01T05:27:48;101003.50;;;18.00
65600;BMP280;52272;-29.642;-50.764;2022-08-01T05:30:18;101000.13;;;17.65
65600;BMP280;52272;-29.642;-50.764;2022-08-01T05:32:49;101004.25;;;18.00
65600;BMP280;52272;-29.642;-50.764;2022-08-01T05:35:19;100978.59;;;18.10
65600;BMP280;52272;-29.642;-50.764;2022-08-01T05:37:50;101003.47;;;18.45
65600;BMP280;52272;-29.642;-50.764;2022-08-01T05:40:23;101003.94;;;18.74
65600;BMP280;52272;-29.642;-50.764;2022-08-01T05:42:54;100999.94;;;18.95
65600;BMP280;52272;-29.642;-50.764;2022-08-01T05:45:24;100994.06;;;18.97
65600;BMP280;52272;-29.642;-50.764;2022-08-01T05:47:55;100993.16;;;19.11
65600;BMP280;52272;-29.642;-50.764;2022-08-01T05:50:26;100984.13;;;19.19
65600;BMP280;52272;-29.642;-50.764;2022-08-01T05:52:57;100987.84;;;19.33
65600;BMP280;52272;-29.642;-50.764;2022-08-01T05:55:27;100986.22;;;19.46
65600;BMP280;52272;-29.642;-50.764;2022-08-01T05:57:59;100979.66;;;19.58
65600;BMP280;52272;-29.642;-50.764;2022-08-01T06:00:29;100984.34;;;19.69
65600;BMP280;52272;-29.642;-50.764;2022-08-01T06:03:00;100968.59;;;19.62
65600;BMP280;52272;-29.642;-50.764;2022-08-01T06:05:30;100985.13;;;19.75
65600;BMP280;52272;-29.642;-50.764;2022-08-01T06:08:00;100982.44;;;19.86
65600;BMP280;52272;-29.642;-50.764;2022-08-01T06:10:32;100973.59;;;19.91
65600;BMP280;52272;-29.642;-50.764;2022-08-01T06:13:02;100969.66;;;19.92
65600;BMP280;52272;-29.642;-50.764;2022-08-01T06:15:33;100952.13;;;19.07
65600;BMP280;52272;-29.642;-50.764;2022-08-01T06:18:03;100959.78;;;19.67
65600;BMP280;52272;-29.642;-50.764;2022-08-01T06:20:34;100947.91;;;19.59
65600;BMP280;52272;-29.642;-50.764;2022-08-01T06:23:05;100955.50;;;19.44
65600;BMP280;52272;-29.642;-50.764;2022-08-01T06:25:55;100945.41;;;19.39
65600;BMP280;52272;-29.642;-50.764;2022-08-01T06:28:26;100939.09;;;19.53
65600;BMP280;52272;-29.642;-50.764;2022-08-01T06:30:56;100933.75;;;19.11
65600;BMP280;52272;-29.642;-50.764;2022-08-01T06:33:29;100926.72;;;19.30
65600;BMP280;52272;-29.642;-50.764;2022-08-01T06:35:59;100916.91;;;19.38
65600;BMP280;52272;-29.642;-50.764;2022-08-01T06:38:29;100917.66;;;19.38
65600;BMP280;52272;-29.642;-50.764;2022-08-01T06:41:00;100919.19;;;19.56
65600;BMP280;52272;-29.642;-50.764;2022-08-01T06:43:31;100924.09;;;19.52
65600;BMP280;52272;-29.642;-50.764;2022-08-01T06:46:01;100923.09;;;19.55
65600;BMP280;52272;-29.642;-50.764;2022-08-01T06:48:31;100919.91;;;19.45
65600;BMP280;52272;-29.642;-50.764;2022-08-01T06:51:01;100920.38;;;19.44
65600;BMP280;52272;-29.642;-50.764;2022-08-01T06:53:38;100906.38;;;19.45
65600;BMP280;52272;-29.642;-50.764;2022-08-01T06:56:12;100912.03;;;19.47
65600;BMP280;52272;-29.642;-50.764;2022-08-01T06:58:43;100901.50;;;19.49
65600;BMP280;52272;-29.642;-50.764;2022-08-01T07:01:13;100900.72;;;19.38
65600;BMP280;52272;-29.642;-50.764;2022-08-01T07:03:44;100904.84;;;19.33
65600;BMP280;52272;-29.642;-50.764;2022-08-01T07:06:23;100901.72;;;19.40
65600;BMP280;52272;-29.642;-50.764;2022-08-01T07:08:55;100909.50;;;19.27
65600;BMP280;52272;-29.642;-50.764;2022-08-01T07:11:31;100908.50;;;19.25
65600;BMP280;52272;-29.642;-50.764;2022-08-01T07:14:02;100927.47;;;19.36
65600;BMP280;52272;-29.642;-50.764;2022-08-01T07:16:33;100921.19;;;18.97
65600;BMP280;52272;-29.642;-50.764;2022-08-01T07:19:03;100928.63;;;18.76
65600;BMP280;52272;-29.642;-50.764;2022-08-01T07:21:37;100922.63;;;18.92
65600;BMP280;52272;-29.642;-50.764;2022-08-01T07:24:14;100914.81;;;19.00
65600;BMP280;52272;-29.642;-50.764;2022-08-01T07:26:48;100927.38;;;19.14
65600;BMP280;52272;-29.642;-50.764;2022-08-01T07:29:26;100913.41;;;19.21
65600;BMP280;52272;-29.642;-50.764;2022-08-01T07:31:57;100922.13;;;18.94
65600;BMP280;52272;-29.642;-50.764;2022-08-01T07:34:28;100906.66;;;18.94
65600;BMP280;52272;-29.642;-50.764;2022-08-01T07:36:58;100892.59;;;18.85
65600;BMP280;52272;-29.642;-50.764;2022-08-01T07:39:29;100908.91;;;19.01
65600;BMP280;52272;-29.642;-50.764;2022-08-01T07:41:59;100905.91;;;18.94
65600;BMP280;52272;-29.642;-50.764;2022-08-01T07:44:36;100908.09;;;18.90
65600;BMP280;52272;-29.642;-50.764;2022-08-01T07:47:06;100908.41;;;19.03
65600;BMP280;52272;-29.642;-50.764;2022-08-01T07:49:37;100909.94;;;19.09
65600;BMP280;52272;-29.642;-50.764;2022-08-01T07:52:08;100904.00;;;19.00
65600;BMP280;52272;-29.642;-50.764;2022-08-01T07:54:40;100916.72;;;18.94
65600;BMP280;52272;-29.642;-50.764;2022-08-01T07:57:10;100908.28;;;18.75
65600;BMP280;52272;-29.642;-50.764;2022-08-01T07:59:40;100915.78;;;18.97
65600;BMP280;52272;-29.642;-50.764;2022-08-01T08:02:11;100910.16;;;19.06
65600;BMP280;52272;-29.642;-50.764;2022-08-01T08:04:42;100920.44;;;18.60
65600;BMP280;52272;-29.642;-50.764;2022-08-01T08:07:16;100918.69;;;18.26
65600;BMP280;52272;-29.642;-50.764;2022-08-01T08:09:47;100920.19;;;18.27
65600;BMP280;52272;-29.642;-50.764;2022-08-01T08:12:18;100924.00;;;18.15
65600;BMP280;52272;-29.642;-50.764;2022-08-01T08:14:58;100923.03;;;18.18
65600;BMP280;52272;-29.642;-50.764;2022-08-01T08:17:29;100927.91;;;18.14
65600;BMP280;52272;-29.642;-50.764;2022-08-01T08:20:05;100920.44;;;17.58
65600;BMP280;52272;-29.642;-50.764;2022-08-01T08:22:37;100919.06;;;17.43
65600;BMP280;52272;-29.642;-50.764;2022-08-01T08:25:08;100929.22;;;17.53
65600;BMP280;52272;-29.642;-50.764;2022-08-01T08:27:39;100927.78;;;17.78
65600;BMP280;52272;-29.642;-50.764;2022-08-01T08:30:10;100936.97;;;18.42
65600;BMP280;52272;-29.642;-50.764;2022-08-01T08:32:41;100932.66;;;18.55
65600;BMP280;52272;-29.642;-50.764;2022-08-01T08:35:12;100939.66;;;18.73
65600;BMP280;52272;-29.642;-50.764;2022-08-01T08:37:50;100933.28;;;18.70
65600;BMP280;52272;-29.642;-50.764;2022-08-01T08:40:29;100941.94;;;18.80
65600;BMP280;52272;-29.642;-50.764;2022-08-01T08:43:00;100948.63;;;18.95
65600;BMP280;52272;-29.642;-50.764;2022-08-01T08:45:33;100956.88;;;19.17
65600;BMP280;52272;-29.642;-50.764;2022-08-01T08:48:23;100946.22;;;19.03
65600;BMP280;52272;-29.642;-50.764;2022-08-01T08:50:55;100940.66;;;19.17
65600;BMP280;52272;-29.642;-50.764;2022-08-01T08:53:27;100941.88;;;19.22
65600;BMP280;52272;-29.642;-50.764;2022-08-01T08:56:03;100946.59;;;19.27
65600;BMP280;52272;-29.642;-50.764;2022-08-01T08:58:37;100963.00;;;19.18
65600;BMP280;52272;-29.642;-50.764;2022-08-01T09:01:08;100956.34;;;19.13
65600;BMP280;52272;-29.642;-50.764;2022-08-01T09:03:40;100961.47;;;19.06
65600;BMP280;52272;-29.642;-50.764;2022-08-01T09:06:11;100956.16;;;18.80
65600;BMP280;52272;-29.642;-50.764;2022-08-01T09:08:42;100980.69;;;18.82
65600;BMP280;52272;-29.642;-50.764;2022-08-01T09:11:12;100981.88;;;18.76
65600;BMP280;52272;-29.642;-50.764;2022-08-01T09:16:43;100968.94;;;18.85
65600;BMP280;52272;-29.642;-50.764;2022-08-01T09:19:18;100977.53;;;18.84
65600;BMP280;52272;-29.642;-50.764;2022-08-01T09:22:17;100988.84;;;18.88
65600;BMP280;52272;-29.642;-50.764;2022-08-01T09:25:09;100962.09;;;18.59
65600;BMP280;52272;-29.642;-50.764;2022-08-01T09:27:40;100980.31;;;18.64
65600;BMP280;52272;-29.642;-50.764;2022-08-01T09:30:16;100991.56;;;18.06
65600;BMP280;52272;-29.642;-50.764;2022-08-01T09:33:00;100987.31;;;18.51
65600;BMP280;52272;-29.642;-50.764;2022-08-01T09:35:44;100978.44;;;18.45
65600;BMP280;52272;-29.642;-50.764;2022-08-01T09:38:25;100978.66;;;18.41
65600;BMP280;52272;-29.642;-50.764;2022-08-01T09:40:59;100992.50;;;18.54
65600;BMP280;52272;-29.642;-50.764;2022-08-01T09:43:31;100998.50;;;18.69
65600;BMP280;52272;-29.642;-50.764;2022-08-01T09:46:09;100994.97;;;18.52
65600;BMP280;52272;-29.642;-50.764;2022-08-01T09:48:59;100994.16;;;18.46
65600;BMP280;52272;-29.642;-50.764;2022-08-01T09:51:39;100998.31;;;18.47
65600;BMP280;52272;-29.642;-50.764;2022-08-01T09:54:33;100991.78;;;18.59
65600;BMP280;52272;-29.642;-50.764;2022-08-01T09:57:30;101004.56;;;18.58
65600;BMP280;52272;-29.642;-50.764;2022-08-01T10:00:02;100999.56;;;18.01
65600;BMP280;52272;-29.642;-50.764;2022-08-01T10:02:40;101005.84;;;18.12
65600;BMP280;52272;-29.642;-50.764;2022-08-01T10:05:12;101001.09;;;18.58
65600;BMP280;52272;-29.642;-50.764;2022-08-01T10:08:04;101002.94;;;18.72
65600;BMP280;52272;-29.642;-50.764;2022-08-01T10:10:36;100999.03;;;18.73
65600;BMP280;52272;-29.642;-50.764;2022-08-01T10:13:06;100988.75;;;18.77
65600;BMP280;52272;-29.642;-50.764;2022-08-01T10:15:39;100973.06;;;18.81
65600;BMP280;52272;-29.642;-50.764;2022-08-01T10:18:11;100992.94;;;18.78
65600;BMP280;52272;-29.642;-50.764;2022-08-01T10:20:53;101007.53;;;18.91
65600;BMP280;52272;-29.642;-50.764;2022-08-01T10:23:33;101010.44;;;18.88
65600;BMP280;52272;-29.642;-50.764;2022-08-01T10:26:10;101016.41;;;19.03
65600;BMP280;52272;-29.642;-50.764;2022-08-01T10:28:44;101010.28;;;18.71
65600;BMP280;52272;-29.642;-50.764;2022-08-01T10:31:18;101025.69;;;18.60
65600;BMP280;52272;-29.642;-50.764;2022-08-01T10:33:59;101033.88;;;19.02
65600;BMP280;52272;-29.642;-50.764;2022-08-01T10:36:31;101033.13;;;19.07
65600;BMP280;52272;-29.642;-50.764;2022-08-01T10:39:11;101029.22;;;19.08
65600;BMP280;52272;-29.642;-50.764;2022-08-01T10:41:48;101036.72;;;19.24
65600;BMP280;52272;-29.642;-50.764;2022-08-01T10:44:19;101034.78;;;18.93
65600;BMP280;52272;-29.642;-50.764;2022-08-01T10:46:57;101032.94;;;19.10
65600;BMP280;52272;-29.642;-50.764;2022-08-01T10:49:31;101037.34;;;17.26
65600;BMP280;52272;-29.642;-50.764;2022-08-01T10:52:07;101053.41;;;17.75
65600;BMP280;52272;-29.642;-50.764;2022-08-01T10:54:41;101053.91;;;18.14
65600;BMP280;52272;-29.642;-50.764;2022-08-01T10:57:21;101057.47;;;18.51
65600;BMP280;52272;-29.642;-50.764;2022-08-01T10:59:55;101055.88;;;18.95
65600;BMP280;52272;-29.642;-50.764;2022-08-01T11:02:31;101048.81;;;19.03
65600;BMP280;52272;-29.642;-50.764;2022-08-01T11:05:20;101053.09;;;18.53
65600;BMP280;52272;-29.642;-50.764;2022-08-01T11:07:53;101063.19;;;19.20
65600;BMP280;52272;-29.642;-50.764;2022-08-01T11:10:42;101063.78;;;19.35
65600;BMP280;52272;-29.642;-50.764;2022-08-01T11:13:13;101060.78;;;19.69
65600;BMP280;52272;-29.642;-50.764;2022-08-01T11:15:44;101062.38;;;19.45
65600;BMP280;52272;-29.642;-50.764;2022-08-01T11:21:02;101057.59;;;19.71
65600;BMP280;52272;-29.642;-50.764;2022-08-01T11:23:53;101042.16;;;19.35
65600;BMP280;52272;-29.642;-50.764;2022-08-01T11:26:25;101068.53;;;20.04
65600;BMP280;52272;-29.642;-50.764;2022-08-01T11:29:15;101068.47;;;19.87
65600;BMP280;52272;-29.642;-50.764;2022-08-01T11:31:49;101074.53;;;19.77
65600;BMP280;52272;-29.642;-50.764;2022-08-01T11:34:55;101078.63;;;20.14
65600;BMP280;52272;-29.642;-50.764;2022-08-01T11:37:26;101074.66;;;20.04
65600;BMP280;52272;-29.642;-50.764;2022-08-01T11:40:35;101070.69;;;20.00
65600;BMP280;52272;-29.642;-50.764;2022-08-01T11:43:17;101077.41;;;20.20
65600;BMP280;52272;-29.642;-50.764;2022-08-01T11:45:53;101081.81;;;19.54
65600;BMP280;52272;-29.642;-50.764;2022-08-01T11:48:28;101076.78;;;19.78
65600;BMP280;52272;-29.642;-50.764;2022-08-01T11:50:59;101065.53;;;20.02
65600;BMP280;52272;-29.642;-50.764;2022-08-01T11:53:30;101065.88;;;20.58
65600;BMP280;52272;-29.642;-50.764;2022-08-01T11:56:04;101056.06;;;20.72
65600;BMP280;52272;-29.642;-50.764;2022-08-01T11:58:35;101060.44;;;21.13
65600;BMP280;52272;-29.642;-50.764;2022-08-01T12:01:06;101051.25;;;21.44
65600;BMP280;52272;-29.642;-50.764;2022-08-01T12:03:37;101049.59;;;21.81
65600;BMP280;52272;-29.642;-50.764;2022-08-01T12:06:13;101048.56;;;21.89
65600;BMP280;52272;-29.642;-50.764;2022-08-01T12:08:44;101033.69;;;22.07
65600;BMP280;52272;-29.642;-50.764;2022-08-01T12:11:15;101059.16;;;22.28
65600;BMP280;52272;-29.642;-50.764;2022-08-01T12:13:45;101052.06;;;22.19
65600;BMP280;52272;-29.642;-50.764;2022-08-01T12:16:17;101053.47;;;22.31
65600;BMP280;52272;-29.642;-50.764;2022-08-01T12:18:54;101058.22;;;22.20
65600;BMP280;52272;-29.642;-50.764;2022-08-01T12:21:25;101062.94;;;21.73
65600;BMP280;52272;-29.642;-50.764;2022-08-01T12:24:02;101062.72;;;22.12
65600;BMP280;52272;-29.642;-50.764;2022-08-01T12:26:42;101070.31;;;22.54
65600;BMP280;52272;-29.642;-50.764;2022-08-01T12:29:34;101076.22;;;22.87
65600;BMP280;52272;-29.642;-50.764;2022-08-01T12:32:24;101070.22;;;22.94
65600;BMP280;52272;-29.642;-50.764;2022-08-01T12:35:05;101086.13;;;23.69
65600;BMP280;52272;-29.642;-50.764;2022-08-01T12:37:38;101081.34;;;23.38
65600;BMP280;52272;-29.642;-50.764;2022-08-01T12:40:35;101085.66;;;23.28
65600;BMP280;52272;-29.642;-50.764;2022-08-01T12:43:17;101100.69;;;23.90
65600;BMP280;52272;-29.642;-50.764;2022-08-01T12:45:57;101104.69;;;24.20
65600;BMP280;52272;-29.642;-50.764;2022-08-01T12:48:31;101101.03;;;24.62
65600;BMP280;52272;-29.642;-50.764;2022-08-01T12:51:03;101105.50;;;24.47
65600;BMP280;52272;-29.642;-50.764;2022-08-01T12:53:34;101108.13;;;24.52
65600;BMP280;52272;-29.642;-50.764;2022-08-01T12:56:09;101108.09;;;24.71
65600;BMP280;52272;-29.642;-50.764;2022-08-01T12:58:40;101111.47;;;24.14
65600;BMP280;52272;-29.642;-50.764;2022-08-01T13:01:11;101115.91;;;23.99
65600;BMP280;52272;-29.642;-50.764;2022-08-01T13:04:00;101119.03;;;24.21
65600;BMP280;52272;-29.642;-50.764;2022-08-01T13:06:33;101124.47;;;25.22
65600;BMP280;52272;-29.642;-50.764;2022-08-01T13:09:06;101116.53;;;26.25
65600;BMP280;52272;-29.642;-50.764;2022-08-01T13:11:36;101122.97;;;26.14
65600;BMP280;52272;-29.642;-50.764;2022-08-01T13:14:28;101124.16;;;25.85
65600;BMP280;52272;-29.642;-50.764;2022-08-01T13:16:59;101126.25;;;25.79
65600;BMP280;52272;-29.642;-50.764;2022-08-01T13:19:45;101128.78;;;25.77
65600;BMP280;52272;-29.642;-50.764;2022-08-01T13:22:16;101131.47;;;25.57
65600;BMP280;52272;-29.642;-50.764;2022-08-01T13:24:47;101129.50;;;25.78
65600;BMP280;52272;-29.642;-50.764;2022-08-01T13:27:21;101131.06;;;26.68
65600;BMP280;52272;-29.642;-50.764;2022-08-01T13:30:18;101122.66;;;26.66
65600;BMP280;52272;-29.642;-50.764;2022-08-01T13:32:59;101128.34;;;26.96
65600;BMP280;52272;-29.642;-50.764;2022-08-01T13:35:30;101133.59;;;27.79
65600;BMP280;52272;-29.642;-50.764;2022-08-01T13:38:00;101127.84;;;27.55
65600;BMP280;52272;-29.642;-50.764;2022-08-01T13:40:31;101143.75;;;26.86
65600;BMP280;52272;-29.642;-50.764;2022-08-01T13:43:01;101134.53;;;27.82
65600;BMP280;52272;-29.642;-50.764;2022-08-01T13:45:32;101135.34;;;27.54
65600;BMP280;52272;-29.642;-50.764;2022-08-01T13:48:04;101141.66;;;28.37
65600;BMP280;52272;-29.642;-50.764;2022-08-01T13:50:46;101136.19;;;29.14
65600;BMP280;52272;-29.642;-50.764;2022-08-01T13:53:37;101138.66;;;29.34
65600;BMP280;52272;-29.642;-50.764;2022-08-01T13:56:07;101137.31;;;29.99
65600;BMP280;52272;-29.642;-50.764;2022-08-01T13:58:38;101129.22;;;30.59
65600;BMP280;52272;-29.642;-50.764;2022-08-01T14:01:08;101127.94;;;30.77
65600;BMP280;52272;-29.642;-50.764;2022-08-01T14:03:39;101119.69;;;30.02
65600;BMP280;52272;-29.642;-50.764;2022-08-01T14:06:10;101137.06;;;28.54
65600;BMP280;52272;-29.642;-50.764;2022-08-01T14:08:44;101133.22;;;28.72
65600;BMP280;52272;-29.642;-50.764;2022-08-01T14:11:14;101137.53;;;29.37
65600;BMP280;52272;-29.642;-50.764;2022-08-01T14:13:46;101134.25;;;29.31
65600;BMP280;52272;-29.642;-50.764;2022-08-01T14:16:17;101133.22;;;30.48
65600;BMP280;52272;-29.642;-50.764;2022-08-01T14:18:48;101117.91;;;30.21
65600;BMP280;52272;-29.642;-50.764;2022-08-01T14:21:18;101124.63;;;29.54
65600;BMP280;52272;-29.642;-50.764;2022-08-01T14:23:49;101120.25;;;29.83
65600;BMP280;52272;-29.642;-50.764;2022-08-01T14:26:19;101120.63;;;31.05